createdAt,value
2023-02-24T00:01:51.599Z,1.76
2023-02-24T00:04:20.710Z,1.74
2023-02-24T00:06:48.122Z,1.41
2023-02-24T00:09:20.367Z,1.19
2023-02-24T00:11:53.717Z,0.63
2023-02-24T00:14:20.948Z,1.02
2023-02-24T00:16:48.103Z,1.59
2023-02-24T00:19:17.841Z,0.44
2023-02-24T00:21:45.524Z,1.50
2023-02-24T00:24:13.001Z,1.09
2023-02-24T00:26:40.281Z,1.63
2023-02-24T00:29:11.130Z,1.44
2023-02-24T00:31:42.870Z,1.47
2023-02-24T00:34:12.790Z,1.58
2023-02-24T00:36:39.566Z,1.61
2023-02-24T00:39:11.444Z,1.51
2023-02-24T00:41:44.633Z,1.52
2023-02-24T00:44:14.175Z,1.59
2023-02-24T00:46:44.719Z,1.59
2023-02-24T00:49:17.488Z,1.61
2023-02-24T00:51:47.168Z,1.71
2023-02-24T00:54:15.112Z,1.54
2023-02-24T00:56:47.103Z,1.67
2023-02-24T00:59:18.648Z,1.71
2023-02-24T01:01:46.068Z,1.66
2023-02-24T01:04:13.868Z,1.27
2023-02-24T01:06:46.130Z,1.70
2023-02-24T01:09:18.949Z,0.75
2023-02-24T01:12:07.183Z,1.63
2023-02-24T01:14:35.904Z,1.27
2023-02-24T01:17:04.748Z,1.35
2023-02-24T01:19:33.796Z,1.13
2023-02-24T01:22:08.111Z,1.14
2023-02-24T01:24:38.141Z,1.05
2023-02-24T01:27:07.326Z,-0.19
2023-02-24T01:29:39.720Z,-0.21
2023-02-24T01:32:14.829Z,-0.26
2023-02-24T01:34:42.524Z,0.75
2023-02-24T01:37:09.969Z,1.12
2023-02-24T01:39:37.142Z,1.16
2023-02-24T01:42:06.117Z,0.88
2023-02-24T01:44:33.206Z,0.67
2023-02-24T01:47:01.429Z,1.24
2023-02-24T01:49:34.729Z,0.41
2023-02-24T01:52:08.212Z,1.47
2023-02-24T01:55:06.103Z,1.33
2023-02-24T01:57:35.544Z,1.47
2023-02-24T02:00:10.398Z,0.69
2023-02-24T02:02:45.759Z,1.05
2023-02-24T02:05:13.397Z,1.21
2023-02-24T02:07:41.675Z,1.29
2023-02-24T02:10:09.658Z,1.04
2023-02-24T02:12:44.355Z,0.50
2023-02-24T02:15:14.665Z,-0.22
2023-02-24T02:18:07.434Z,1.33
2023-02-24T02:20:55.839Z,1.41
2023-02-24T02:23:32.224Z,1.38
2023-02-24T02:26:40.410Z,1.44
2023-02-24T02:29:28.433Z,1.51
2023-02-24T02:32:18.393Z,0.85
2023-02-24T02:35:00.336Z,0.73
2023-02-24T02:37:35.954Z,0.46
2023-02-24T02:40:20.817Z,0.83
2023-02-24T02:42:57.961Z,0.46
2023-02-24T02:45:41.575Z,0.23
2023-02-24T02:48:20.328Z,0.21
2023-02-24T02:50:54.907Z,0.00
2023-02-24T02:53:29.914Z,-0.67
2023-02-24T02:56:07.307Z,-1.67
2023-02-24T02:58:42.107Z,-0.01
2023-02-24T03:01:12.004Z,-0.13
2023-02-24T03:03:44.632Z,0.07
2023-02-24T03:06:22.172Z,0.43
2023-02-24T03:08:56.743Z,0.45
2023-02-24T03:11:24.193Z,-0.07
2023-02-24T03:13:53.991Z,0.61
2023-02-24T03:16:23.170Z,0.59
2023-02-24T03:19:03.846Z,0.69
2023-02-24T03:21:38.013Z,0.85
2023-02-24T03:24:06.469Z,0.80
2023-02-24T03:26:43.770Z,-0.17
2023-02-24T03:29:32.635Z,-0.82
2023-02-24T03:32:04.798Z,0.05
2023-02-24T03:34:56.850Z,0.11
2023-02-24T03:37:27.947Z,-0.13
2023-02-24T03:39:58.982Z,-0.68
2023-02-24T03:42:33.790Z,-0.36
2023-02-24T03:45:02.152Z,-0.67
2023-02-24T03:47:30.262Z,-0.32
2023-02-24T03:49:57.019Z,-0.71
2023-02-24T03:52:57.750Z,-0.38
2023-02-24T03:56:06.319Z,-0.84
2023-02-24T03:59:12.985Z,-0.37
2023-02-24T04:02:05.354Z,-0.68
2023-02-24T04:04:45.509Z,-0.32
2023-02-24T04:07:59.655Z,-0.90
2023-02-24T04:10:34.064Z,-0.37
2023-02-24T04:13:28.277Z,0.11
2023-02-24T04:16:01.670Z,-1.73
2023-02-24T04:18:32.087Z,-0.07
2023-02-24T04:21:02.977Z,-1.67
2023-02-24T04:23:38.736Z,-0.31
2023-02-24T04:26:06.631Z,-3.33
2023-02-24T04:28:34.650Z,-0.90
2023-02-24T04:31:10.022Z,-0.38
2023-02-24T04:33:40.616Z,-1.17
2023-02-24T04:36:09.175Z,-0.84
2023-02-24T04:38:39.124Z,-1.55
2023-02-24T04:41:06.118Z,-1.32
2023-02-24T04:43:32.688Z,-3.74
2023-02-24T04:45:59.500Z,0.01
2023-02-24T04:48:26.081Z,-1.59
2023-02-24T04:50:55.114Z,-0.26
2023-02-24T04:53:27.174Z,-0.95
2023-02-24T04:55:56.187Z,0.15
2023-02-24T04:58:28.609Z,0.12
2023-02-24T05:00:56.077Z,0.08
2023-02-24T05:03:28.050Z,-0.16
2023-02-24T05:05:57.020Z,-0.57
2023-02-24T05:08:25.074Z,-0.81
2023-02-24T05:10:51.953Z,-1.39
2023-02-24T05:13:20.221Z,-0.63
2023-02-24T05:15:48.301Z,-1.16
2023-02-24T05:18:20.424Z,-0.96
2023-02-24T05:21:07.984Z,-0.65
2023-02-24T05:23:46.331Z,-0.52
2023-02-24T05:26:18.548Z,-1.74
2023-02-24T05:28:52.282Z,-0.32
2023-02-24T05:31:26.366Z,-0.08
2023-02-24T05:33:57.643Z,-0.39
2023-02-24T05:36:26.106Z,-0.70
2023-02-24T05:39:07.281Z,-0.54
2023-02-24T05:41:36.463Z,-0.75
2023-02-24T05:44:08.534Z,-0.64
2023-02-24T05:46:38.387Z,-0.96
2023-02-24T05:49:11.476Z,-0.30
2023-02-24T05:51:39.263Z,-0.17
2023-02-24T05:54:11.098Z,-1.02
2023-02-24T05:56:40.070Z,-0.69
2023-02-24T05:59:11.216Z,-0.42
2023-02-24T06:01:45.558Z,-2.09
2023-02-24T06:04:20.947Z,-0.59
2023-02-24T06:06:58.104Z,-0.96
2023-02-24T06:09:24.718Z,-1.19
2023-02-24T06:11:51.544Z,-1.05
2023-02-24T06:14:18.214Z,-1.31
2023-02-24T06:16:44.861Z,-1.02
2023-02-24T06:19:13.195Z,-0.94
2023-02-24T06:21:42.031Z,-0.68
2023-02-24T06:24:18.301Z,-0.79
2023-02-24T06:26:46.000Z,-0.48
2023-02-24T06:29:17.913Z,-0.65
2023-02-24T06:31:45.055Z,-0.40
2023-02-24T06:34:13.890Z,-0.28
2023-02-24T06:36:40.900Z,-0.61
2023-02-24T06:39:08.147Z,-0.82
2023-02-24T06:41:37.847Z,-0.73
2023-02-24T06:44:04.526Z,-0.52
2023-02-24T06:46:31.620Z,-0.68
2023-02-24T06:48:58.193Z,-0.71
2023-02-24T06:51:24.904Z,-1.02
2023-02-24T06:53:52.313Z,-0.73
2023-02-24T06:56:19.911Z,-0.67
2023-02-24T06:58:47.780Z,-0.32
2023-02-24T07:01:16.552Z,-0.25
2023-02-24T07:04:02.403Z,-0.43
2023-02-24T07:06:31.474Z,-0.64
2023-02-24T07:08:58.797Z,-2.18
2023-02-24T07:11:27.711Z,-1.11
2023-02-24T07:13:54.669Z,-1.09
2023-02-24T07:16:25.205Z,-1.16
2023-02-24T07:18:56.787Z,-0.94
2023-02-24T07:21:30.151Z,-0.75
2023-02-24T07:23:59.096Z,-1.09
2023-02-24T07:26:27.843Z,-0.72
2023-02-24T07:28:56.661Z,-0.96
2023-02-24T07:31:26.076Z,-1.77
2023-02-24T07:33:55.683Z,-0.69
2023-02-24T07:36:23.361Z,-1.35
2023-02-24T07:38:52.765Z,-0.30
2023-02-24T07:41:22.724Z,-0.61
2023-02-24T07:43:50.834Z,-0.35
2023-02-24T07:46:20.648Z,-0.48
2023-02-24T07:48:47.262Z,-0.48
2023-02-24T07:51:19.363Z,-0.85
2023-02-24T07:53:52.963Z,-0.55
2023-02-24T07:56:26.853Z,-0.08
2023-02-24T07:59:11.064Z,-0.44
2023-02-24T08:01:41.921Z,-0.38
2023-02-24T08:04:12.487Z,-0.50
2023-02-24T08:06:45.463Z,-0.05
2023-02-24T08:09:20.732Z,-1.28
2023-02-24T08:11:53.588Z,-0.18
2023-02-24T08:14:32.979Z,-0.64
2023-02-24T08:16:59.731Z,-0.40
2023-02-24T08:19:39.456Z,-1.15
2023-02-24T08:22:19.740Z,-0.35
2023-02-24T08:25:05.887Z,-0.78
2023-02-24T08:27:38.969Z,-0.39
2023-02-24T08:30:07.962Z,-0.36
2023-02-24T08:32:39.061Z,-0.77
2023-02-24T08:35:15.261Z,-0.66
2023-02-24T08:37:48.332Z,-0.43
2023-02-24T08:40:32.884Z,-1.27
2023-02-24T08:43:17.173Z,-1.53
2023-02-24T08:45:50.867Z,-0.64
2023-02-24T08:48:26.804Z,-1.20
2023-02-24T08:50:56.778Z,-0.64
2023-02-24T08:53:29.623Z,-0.67
2023-02-24T08:55:56.467Z,-2.08
2023-02-24T08:58:27.132Z,-1.49
2023-02-24T09:00:57.088Z,-1.46
2023-02-24T09:03:29.784Z,-1.10
2023-02-24T09:06:09.063Z,-0.56
2023-02-24T09:08:38.649Z,-0.41
2023-02-24T09:11:13.932Z,-0.25
2023-02-24T09:13:51.919Z,0.11
2023-02-24T09:16:21.171Z,-0.22
2023-02-24T09:19:07.764Z,-1.31
2023-02-24T09:21:49.538Z,-0.65
2023-02-24T09:24:27.029Z,-0.16
2023-02-24T09:26:59.783Z,-0.47
2023-02-24T09:29:49.173Z,-0.99
2023-02-24T09:32:16.233Z,-0.64
2023-02-24T09:34:47.281Z,-2.05
2023-02-24T09:37:26.811Z,-0.38
2023-02-24T09:39:54.488Z,-1.74
2023-02-24T09:42:34.392Z,-0.11
2023-02-24T09:45:11.477Z,-0.57
2023-02-24T09:47:57.295Z,-0.70
2023-02-24T09:51:04.129Z,-0.29
2023-02-24T09:53:49.146Z,-0.18
2023-02-24T09:56:22.083Z,0.23
2023-02-24T09:58:58.570Z,0.23
2023-02-24T10:01:42.957Z,0.16
2023-02-24T10:04:31.617Z,0.37
2023-02-24T10:07:11.038Z,0.15
2023-02-24T10:09:43.239Z,-0.15
2023-02-24T10:12:19.045Z,0.46
2023-02-24T10:15:00.529Z,0.25
2023-02-24T10:17:40.251Z,0.51
2023-02-24T10:20:30.850Z,0.77
2023-02-24T10:23:10.424Z,0.13
2023-02-24T10:25:57.357Z,0.72
2023-02-24T10:28:36.000Z,0.89
2023-02-24T10:31:25.321Z,0.97
2023-02-24T10:33:59.461Z,1.04
2023-02-24T10:36:35.976Z,1.33
2023-02-24T10:39:15.822Z,1.45
2023-02-24T10:41:49.130Z,1.28
2023-02-24T10:44:24.240Z,1.63
2023-02-24T10:47:17.807Z,0.84
2023-02-24T10:49:58.494Z,1.71
2023-02-24T10:52:58.116Z,1.69
2023-02-24T10:55:44.943Z,1.71
2023-02-24T10:58:44.585Z,1.75
2023-02-24T11:01:21.045Z,1.84
2023-02-24T11:04:01.550Z,1.04
2023-02-24T11:06:41.741Z,1.94
2023-02-24T11:09:29.647Z,1.77
2023-02-24T11:12:19.227Z,1.76
2023-02-24T11:15:17.923Z,0.72
2023-02-24T11:17:49.000Z,1.42
2023-02-24T11:20:33.643Z,1.43
2023-02-24T11:23:14.863Z,1.65
2023-02-24T11:26:04.705Z,1.56
2023-02-24T11:28:39.217Z,1.74
2023-02-24T11:31:51.914Z,0.06
2023-02-24T11:34:43.159Z,1.29
2023-02-24T11:37:34.635Z,0.03
2023-02-24T11:40:16.608Z,1.31
2023-02-24T11:42:51.500Z,0.82
2023-02-24T11:45:22.750Z,1.59
2023-02-24T11:47:54.136Z,0.47
2023-02-24T11:50:32.179Z,0.20
2023-02-24T11:53:05.565Z,0.59
2023-02-24T11:55:42.972Z,1.38
2023-02-24T11:58:37.533Z,0.89
2023-02-24T12:01:18.481Z,0.95
2023-02-24T12:03:57.069Z,1.89
2023-02-24T12:06:33.055Z,1.92
2023-02-24T12:09:09.384Z,2.06
2023-02-24T12:11:43.793Z,1.61
2023-02-24T12:14:21.537Z,1.48
2023-02-24T12:16:56.530Z,1.66
2023-02-24T12:19:32.071Z,2.24
2023-02-24T12:22:05.883Z,1.98
2023-02-24T12:24:35.888Z,0.18
2023-02-24T12:27:19.431Z,2.01
2023-02-24T12:30:22.968Z,2.10
2023-02-24T12:33:07.419Z,2.21
2023-02-24T12:35:54.176Z,1.91
2023-02-24T12:38:48.803Z,1.91
2023-02-24T12:41:47.644Z,2.13
2023-02-24T12:44:44.319Z,1.86
2023-02-24T12:47:43.011Z,2.02
2023-02-24T12:50:46.699Z,2.01
2023-02-24T12:53:39.921Z,1.80
2023-02-24T12:56:25.216Z,1.65
2023-02-24T12:58:58.574Z,1.25
2023-02-24T13:01:48.540Z,1.73
2023-02-24T13:04:17.940Z,1.69
2023-02-24T13:07:15.274Z,1.62
2023-02-24T13:10:14.537Z,1.74
2023-02-24T13:12:59.769Z,1.57
2023-02-24T13:15:31.382Z,1.81
2023-02-24T13:17:58.482Z,1.22
2023-02-24T13:20:36.908Z,1.31
2023-02-24T13:23:19.497Z,0.82
2023-02-24T13:25:54.571Z,0.64
2023-02-24T13:28:27.815Z,1.57
2023-02-24T13:31:02.224Z,0.96
2023-02-24T13:33:44.089Z,0.38
2023-02-24T13:36:23.052Z,0.74
2023-02-24T13:38:52.694Z,1.31
2023-02-24T13:41:22.644Z,1.42
2023-02-24T13:44:18.546Z,1.59
2023-02-24T13:47:22.689Z,1.61
2023-02-24T13:50:26.301Z,1.65
2023-02-24T13:53:13.408Z,1.44
2023-02-24T13:56:09.781Z,1.37
2023-02-24T13:58:50.307Z,1.56
2023-02-24T14:01:19.188Z,1.28
2023-02-24T14:04:04.061Z,1.09
2023-02-24T14:06:31.337Z,0.55
2023-02-24T14:09:02.286Z,1.20
2023-02-24T14:11:34.775Z,1.19
2023-02-24T14:14:01.624Z,0.85
2023-02-24T14:16:39.979Z,0.53
2023-02-24T14:19:14.123Z,1.09
2023-02-24T14:21:51.869Z,0.16
2023-02-24T14:24:20.066Z,0.34
2023-02-24T14:26:57.611Z,0.91
2023-02-24T14:29:35.204Z,0.27
2023-02-24T14:32:23.183Z,0.46
2023-02-24T14:34:50.887Z,1.32
2023-02-24T14:37:23.296Z,1.22
2023-02-24T14:39:54.629Z,0.79
2023-02-24T14:42:21.947Z,0.79
2023-02-24T14:44:53.991Z,0.36
2023-02-24T14:47:23.992Z,1.14
2023-02-24T14:49:59.663Z,1.32
2023-02-24T14:52:39.080Z,1.42
2023-02-24T14:55:19.623Z,0.61
2023-02-24T14:58:00.249Z,1.60
2023-02-24T15:00:39.901Z,0.56
2023-02-24T15:03:15.934Z,0.73
2023-02-24T15:05:45.657Z,1.66
2023-02-24T15:08:39.458Z,1.43
2023-02-24T15:11:15.219Z,1.49
2023-02-24T15:13:46.220Z,1.35
2023-02-24T15:16:24.719Z,1.22
2023-02-24T15:18:54.151Z,0.54
2023-02-24T15:21:33.432Z,1.34
2023-02-24T15:24:18.729Z,1.51
2023-02-24T15:26:57.448Z,1.58
2023-02-24T15:29:27.663Z,1.19
2023-02-24T15:31:56.735Z,1.36
2023-02-24T15:34:32.278Z,1.40
2023-02-24T15:37:04.309Z,0.41
2023-02-24T15:39:32.556Z,1.31
2023-02-24T15:42:08.764Z,1.24
2023-02-24T15:44:36.520Z,0.86
2023-02-24T15:47:22.000Z,-0.03
2023-02-24T15:49:48.735Z,0.75
2023-02-24T15:52:20.361Z,0.33
2023-02-24T15:54:46.985Z,1.10
2023-02-24T15:57:16.528Z,1.25
2023-02-24T15:59:43.967Z,1.21
2023-02-24T16:02:14.081Z,1.02
2023-02-24T16:04:40.751Z,0.39
2023-02-24T16:07:11.469Z,0.09
2023-02-24T16:09:40.914Z,0.93
2023-02-24T16:12:13.430Z,0.90
2023-02-24T16:14:41.058Z,1.02
2023-02-24T16:17:16.953Z,0.93
2023-02-24T16:19:44.238Z,1.01
2023-02-24T16:22:10.974Z,1.04
2023-02-24T16:24:38.160Z,1.14
2023-02-24T16:27:06.167Z,0.16
2023-02-24T16:29:32.780Z,0.36
2023-02-24T16:31:59.698Z,0.77
2023-02-24T16:34:26.411Z,0.62
2023-02-24T16:36:53.068Z,0.58
2023-02-24T16:39:19.684Z,0.77
2023-02-24T16:41:46.265Z,-0.46
2023-02-24T16:44:12.960Z,0.49
2023-02-24T16:46:43.696Z,0.63
2023-02-24T16:49:17.674Z,0.80
2023-02-24T16:51:44.355Z,0.48
2023-02-24T16:54:10.954Z,-0.01
2023-02-24T16:56:38.041Z,0.74
2023-02-24T16:59:04.598Z,-0.78
2023-02-24T17:01:31.653Z,0.51
2023-02-24T17:03:58.713Z,0.63
2023-02-24T17:06:26.112Z,0.54
2023-02-24T17:08:53.008Z,0.38
2023-02-24T17:11:21.181Z,0.86
2023-02-24T17:13:47.833Z,-0.43
2023-02-24T17:16:14.448Z,0.47
2023-02-24T17:18:41.143Z,0.45
2023-02-24T17:21:09.520Z,-0.60
2023-02-24T17:23:36.111Z,0.23
2023-02-24T17:26:02.944Z,-0.94
2023-02-24T17:28:29.854Z,-0.12
2023-02-24T17:30:56.617Z,-0.53
2023-02-24T17:33:23.593Z,0.41
2023-02-24T17:35:50.437Z,-2.03
2023-02-24T17:38:19.935Z,-0.05
2023-02-24T17:40:47.711Z,0.13
2023-02-24T17:43:14.377Z,0.20
2023-02-24T17:45:44.689Z,0.10
2023-02-24T17:48:12.878Z,0.59
2023-02-24T17:50:43.936Z,0.67
2023-02-24T17:53:10.568Z,0.55
2023-02-24T17:55:37.580Z,-0.89
2023-02-24T17:58:04.772Z,-0.96
2023-02-24T18:00:31.482Z,0.41
2023-02-24T18:02:58.223Z,0.30
2023-02-24T18:05:25.165Z,-0.81
2023-02-24T18:07:53.508Z,0.20
2023-02-24T18:10:20.257Z,-0.18
2023-02-24T18:12:46.988Z,0.79
2023-02-24T18:15:13.541Z,0.53
2023-02-24T18:17:40.227Z,0.61
2023-02-24T18:20:08.761Z,0.53
2023-02-24T18:22:35.776Z,0.52
2023-02-24T18:25:02.782Z,-0.02
2023-02-24T18:27:29.687Z,-0.48
2023-02-24T18:29:56.312Z,0.22
2023-02-24T18:32:23.128Z,-0.07
2023-02-24T18:34:49.808Z,0.10
2023-02-24T18:37:16.482Z,0.17
2023-02-24T18:39:43.077Z,0.18
2023-02-24T18:42:09.962Z,-0.16
2023-02-24T18:44:36.588Z,0.08
2023-02-24T18:47:09.292Z,0.18
2023-02-24T18:49:36.455Z,0.34
2023-02-24T18:52:05.274Z,0.31
2023-02-24T18:54:33.095Z,0.27
2023-02-24T18:56:59.773Z,0.05
2023-02-24T18:59:26.362Z,-0.26
2023-02-24T19:01:54.018Z,-0.74
2023-02-24T19:04:20.671Z,-0.19
2023-02-24T19:06:49.077Z,-0.31
2023-02-24T19:09:16.704Z,-0.28
2023-02-24T19:11:43.305Z,-0.61
2023-02-24T19:14:13.378Z,-1.18
2023-02-24T19:16:40.651Z,-0.82
2023-02-24T19:19:07.432Z,-1.63
2023-02-24T19:21:34.150Z,-1.70
2023-02-24T19:24:03.548Z,-1.73
2023-02-24T19:26:30.409Z,-1.10
2023-02-24T19:28:58.586Z,-1.76
2023-02-24T19:31:29.216Z,-0.86
2023-02-24T19:34:00.204Z,-1.86
2023-02-24T19:36:28.348Z,-1.05
2023-02-24T19:38:55.461Z,-2.32
2023-02-24T19:41:22.290Z,-1.12
2023-02-24T19:43:49.008Z,-1.46
2023-02-24T19:46:16.897Z,-1.19
2023-02-24T19:48:43.671Z,-1.06
2023-02-24T19:51:14.732Z,-0.91
2023-02-24T19:53:41.517Z,-0.76
2023-02-24T19:56:08.195Z,-0.73
2023-02-24T19:58:35.881Z,-1.28
2023-02-24T20:01:10.744Z,-0.92
2023-02-24T20:03:38.922Z,-1.73
2023-02-24T20:06:06.167Z,-1.26
2023-02-24T20:08:34.841Z,-1.32
2023-02-24T20:11:03.336Z,-1.40
2023-02-24T20:13:30.406Z,-1.35
2023-02-24T20:16:14.135Z,-1.48
2023-02-24T20:18:42.417Z,-1.44
2023-02-24T20:21:10.972Z,-1.37
2023-02-24T20:23:38.994Z,-1.35
2023-02-24T20:26:06.660Z,-1.52
2023-02-24T20:28:33.320Z,-1.36
2023-02-24T20:31:06.792Z,-1.22
2023-02-24T20:33:33.593Z,-1.30
2023-02-24T20:36:00.320Z,-1.95
2023-02-24T20:38:29.060Z,-0.90
2023-02-24T20:40:58.886Z,-1.09
2023-02-24T20:43:26.738Z,-1.36
2023-02-24T20:45:53.335Z,-1.22
2023-02-24T20:48:20.049Z,-2.34
2023-02-24T20:50:46.700Z,-2.64
2023-02-24T20:53:13.410Z,-1.11
2023-02-24T20:55:39.967Z,-0.97
2023-02-24T20:58:07.190Z,-0.93
2023-02-24T21:00:34.280Z,-1.59
2023-02-24T21:03:01.348Z,-1.91
2023-02-24T21:05:28.021Z,-1.08
2023-02-24T21:07:54.720Z,-1.04
2023-02-24T21:10:25.827Z,-0.83
2023-02-24T21:12:52.932Z,-1.80
2023-02-24T21:15:20.072Z,-0.81
2023-02-24T21:17:46.804Z,-1.00
2023-02-24T21:20:13.697Z,-1.68
2023-02-24T21:22:41.092Z,-0.88
2023-02-24T21:25:10.822Z,-0.82
2023-02-24T21:27:38.362Z,-0.93
2023-02-24T21:30:06.976Z,-1.18
2023-02-24T21:32:33.942Z,-1.19
2023-02-24T21:35:00.592Z,-1.13
2023-02-24T21:37:27.407Z,-1.19
2023-02-24T21:39:53.997Z,-1.10
2023-02-24T21:42:22.204Z,-1.09
2023-02-24T21:44:51.030Z,-1.81
2023-02-24T21:47:18.458Z,-1.28
2023-02-24T21:49:46.176Z,-1.30
2023-02-24T21:52:13.106Z,-1.76
2023-02-24T21:54:40.009Z,-3.48
2023-02-24T21:57:06.764Z,-1.45
2023-02-24T21:59:33.362Z,-1.41
2023-02-24T22:02:00.169Z,-1.22
2023-02-24T22:04:28.965Z,-1.58
2023-02-24T22:06:57.972Z,-1.43
2023-02-24T22:09:25.497Z,-2.88
2023-02-24T22:11:52.165Z,-2.88
2023-02-24T22:14:18.898Z,-1.77
2023-02-24T22:16:45.768Z,-1.59
2023-02-24T22:19:12.523Z,-1.19
2023-02-24T22:21:42.248Z,-1.09
2023-02-24T22:24:12.922Z,-1.86
2023-02-24T22:26:40.185Z,-1.23
2023-02-24T22:29:07.073Z,-1.35
2023-02-24T22:31:34.948Z,-1.51
2023-02-24T22:34:04.351Z,-1.60
2023-02-24T22:36:33.668Z,-1.21
2023-02-24T22:39:01.284Z,-0.93
2023-02-24T22:41:32.770Z,-0.89
2023-02-24T22:44:00.949Z,-0.91
2023-02-24T22:46:30.545Z,-1.09
2023-02-24T22:48:57.790Z,-0.80
2023-02-24T22:51:25.050Z,-0.85
2023-02-24T22:53:52.730Z,-1.27
2023-02-24T22:56:23.261Z,-2.45
2023-02-24T22:58:50.802Z,-1.51
2023-02-24T23:01:29.912Z,-0.88
2023-02-24T23:04:00.608Z,-0.67
2023-02-24T23:06:27.693Z,-2.00
2023-02-24T23:08:54.645Z,-0.78
2023-02-24T23:11:32.495Z,-0.90
2023-02-24T23:14:02.168Z,-1.23
2023-02-24T23:16:31.702Z,-1.41
2023-02-24T23:19:00.907Z,-1.71
2023-02-24T23:21:37.758Z,-0.94
2023-02-24T23:24:06.379Z,-0.93
2023-02-24T23:26:34.280Z,-0.59
2023-02-24T23:29:01.761Z,-0.75
2023-02-24T23:31:29.035Z,-0.79
2023-02-24T23:33:55.670Z,-0.86
2023-02-24T23:36:23.937Z,-0.70
2023-02-24T23:38:51.801Z,-0.59
2023-02-24T23:41:19.378Z,-0.59
2023-02-24T23:43:45.984Z,-1.46
2023-02-24T23:46:13.245Z,-1.38
2023-02-24T23:48:40.457Z,-0.41
2023-02-24T23:51:12.322Z,-0.71
2023-02-24T23:53:43.940Z,-1.12
2023-02-24T23:56:18.007Z,-0.90
2023-02-24T23:58:48.995Z,-1.82
